Hovd, Mongolia
Current Conditions -  °F | °C
As of 11:00 PM on Thursday 23 Oct 2014 (Local Time) from ZWWW Reporting Station
Smoke Smoke  
Wind Chill: 55°   Ceiling: Unl
Heat Index: 55°   Visibility: 2.1mi
Dew Point: 41°   Wind: 2mph
Humidity: 58%   Direction: NA
Pressure: 29.88"   Gusts: NA
Location:  48.02°N, 91.57°E
Report Text: ZWWW 231500Z VRB01MPS 3500 FU NSC 13/05 Q1012 NOSIG
Loading
Personal Weather Stations






























Interactive Weather Map
Tropical Storm Tracking
New forecast layout! Learn more

10-Day Weather Forecast

Advertisements
Track Severe Weather on mobile